createdAt,value
2019-02-14T00:00:08.757Z,41.07
2019-02-14T00:02:37.152Z,40.95
2019-02-14T00:05:05.838Z,46.67
2019-02-14T00:07:34.243Z,41.23
2019-02-14T00:10:02.826Z,47.47
2019-02-14T00:12:31.310Z,43.50
2019-02-14T00:14:59.757Z,44.75
2019-02-14T00:17:28.421Z,41.70
2019-02-14T00:19:56.825Z,40.57
2019-02-14T00:22:25.250Z,40.43
2019-02-14T00:24:53.688Z,48.60
2019-02-14T00:27:22.116Z,42.13
2019-02-14T00:29:50.601Z,46.33
2019-02-14T00:32:19.129Z,42.93
2019-02-14T00:34:47.524Z,40.60
2019-02-14T00:37:15.944Z,43.50
2019-02-14T00:39:44.372Z,42.17
2019-02-14T00:42:12.779Z,46.10
2019-02-14T00:44:41.208Z,42.40
2019-02-14T00:47:09.617Z,47.93
2019-02-14T00:49:38.071Z,46.17
2019-02-14T00:52:06.471Z,46.60
2019-02-14T00:54:34.882Z,47.33
2019-02-14T00:57:03.320Z,44.40
2019-02-14T00:59:31.766Z,45.03
2019-02-14T01:02:00.165Z,50.60
2019-02-14T01:04:28.601Z,48.13
2019-02-14T01:06:57.025Z,45.73
2019-02-14T01:09:25.505Z,46.77
2019-02-14T01:11:53.989Z,47.67
2019-02-14T01:14:22.396Z,47.57
2019-02-14T01:16:50.881Z,48.97
2019-02-14T01:19:19.299Z,48.80
2019-02-14T01:21:47.727Z,48.70
2019-02-14T01:24:16.130Z,46.70
2019-02-14T01:26:44.562Z,50.77
2019-02-14T01:29:12.989Z,50.47
2019-02-14T01:31:41.406Z,56.87
2019-02-14T01:34:10.084Z,57.87
2019-02-14T01:36:38.509Z,49.23
2019-02-14T01:39:06.984Z,60.50
2019-02-14T01:41:35.418Z,52.78
2019-02-14T01:44:03.829Z,52.17
2019-02-14T01:46:32.261Z,49.70
2019-02-14T01:49:00.686Z,54.07
2019-02-14T01:51:29.114Z,52.10
2019-02-14T01:53:57.541Z,59.17
2019-02-14T01:56:25.948Z,53.73
2019-02-14T01:58:54.397Z,53.43
2019-02-14T02:01:22.891Z,55.00
2019-02-14T02:03:51.317Z,50.87
2019-02-14T02:06:19.740Z,53.90
2019-02-14T02:08:48.258Z,52.67
2019-02-14T02:11:16.669Z,52.80
2019-02-14T02:13:45.334Z,53.90
2019-02-14T02:16:13.747Z,61.97
2019-02-14T02:18:42.181Z,59.67
2019-02-14T02:21:10.777Z,53.03
2019-02-14T02:23:39.188Z,58.93
2019-02-14T02:26:07.624Z,54.50
2019-02-14T02:28:36.028Z,58.57
2019-02-14T02:31:04.706Z,59.23
2019-02-14T02:33:33.141Z,54.67
2019-02-14T02:36:01.553Z,57.67
2019-02-14T02:38:29.989Z,62.47
2019-02-14T02:40:58.407Z,59.23
2019-02-14T02:43:26.839Z,58.47
2019-02-14T02:45:55.272Z,58.97
2019-02-14T02:48:23.709Z,56.67
2019-02-14T02:50:52.108Z,60.70
2019-02-14T02:53:20.558Z,60.10
2019-02-14T02:55:48.982Z,60.23
2019-02-14T02:58:17.389Z,56.10
2019-02-14T03:00:45.820Z,65.80
2019-02-14T03:03:14.568Z,59.17
2019-02-14T03:05:43.000Z,64.07
2019-02-14T03:08:11.409Z,59.33
2019-02-14T03:10:39.867Z,58.37
2019-02-14T03:13:08.292Z,64.15
2019-02-14T03:15:36.728Z,62.23
2019-02-14T03:18:05.241Z,59.07
2019-02-14T03:20:33.704Z,62.50
2019-02-14T03:23:02.148Z,60.80
2019-02-14T03:25:30.565Z,62.57
2019-02-14T03:27:59.021Z,60.50
2019-02-14T03:30:27.443Z,68.23
2019-02-14T03:32:55.896Z,58.87
2019-02-14T03:35:24.319Z,63.07
2019-02-14T03:37:52.754Z,64.13
2019-02-14T03:40:21.195Z,59.97
2019-02-14T03:42:49.616Z,65.92
2019-02-14T03:45:20.067Z,61.27
2019-02-14T03:47:48.524Z,69.80
2019-02-14T03:50:17.211Z,65.37
2019-02-14T03:52:45.662Z,61.03
2019-02-14T03:55:14.078Z,65.43
2019-02-14T03:57:42.535Z,67.60
2019-02-14T04:00:16.796Z,65.70
2019-02-14T04:02:45.259Z,65.33
2019-02-14T04:05:13.759Z,62.77
2019-02-14T04:07:42.196Z,63.83
2019-02-14T04:10:13.240Z,68.42
2019-02-14T04:12:41.687Z,59.27
2019-02-14T04:15:19.287Z,61.93
2019-02-14T04:17:47.738Z,64.73
2019-02-14T04:20:16.199Z,64.23
2019-02-14T04:22:44.627Z,68.37
2019-02-14T04:25:13.071Z,65.00
2019-02-14T04:27:41.519Z,62.93
2019-02-14T04:30:11.980Z,63.07
2019-02-14T04:32:40.432Z,66.77
2019-02-14T04:35:08.930Z,64.20
2019-02-14T04:37:37.376Z,62.03
2019-02-14T04:40:11.108Z,69.30
2019-02-14T04:42:39.638Z,72.00
2019-02-14T04:45:09.400Z,67.80
2019-02-14T04:47:37.823Z,67.67
2019-02-14T04:50:08.617Z,66.13
2019-02-14T04:52:37.083Z,67.63
2019-02-14T04:55:08.167Z,69.27
2019-02-14T04:57:36.597Z,71.37
2019-02-14T05:00:08.513Z,64.90
2019-02-14T05:02:36.955Z,65.17
2019-02-14T05:05:07.090Z,67.43
2019-02-14T05:07:35.832Z,64.63
2019-02-14T05:10:06.123Z,67.20
2019-02-14T05:12:34.563Z,66.43
2019-02-14T05:15:03.093Z,64.80
2019-02-14T05:17:31.524Z,64.83
2019-02-14T05:19:59.998Z,63.87
2019-02-14T05:22:28.489Z,70.17
2019-02-14T05:24:56.945Z,66.53
2019-02-14T05:27:25.373Z,64.93
2019-02-14T05:29:53.836Z,69.20
2019-02-14T05:32:22.278Z,71.37
2019-02-14T05:34:50.840Z,66.63
2019-02-14T05:37:19.280Z,67.20
2019-02-14T05:39:47.732Z,66.33
2019-02-14T05:42:16.163Z,70.37
2019-02-14T05:44:44.837Z,67.13
2019-02-14T05:47:13.300Z,68.93
2019-02-14T05:49:41.976Z,63.60
2019-02-14T05:52:10.471Z,66.13
2019-02-14T05:54:38.928Z,66.70
2019-02-14T05:57:07.367Z,66.03
2019-02-14T05:59:35.808Z,65.57
2019-02-14T06:02:04.265Z,72.87
2019-02-14T06:04:32.707Z,66.33
2019-02-14T06:07:01.459Z,77.00
2019-02-14T06:09:29.968Z,67.67
2019-02-14T06:11:58.427Z,69.77
2019-02-14T06:14:26.849Z,67.83
2019-02-14T06:16:55.297Z,67.80
2019-02-14T06:19:23.763Z,72.63
2019-02-14T06:21:52.192Z,66.33
2019-02-14T06:24:20.919Z,71.73
2019-02-14T06:26:49.344Z,65.67
2019-02-14T06:29:17.780Z,69.53
2019-02-14T06:31:46.219Z,70.17
2019-02-14T06:34:14.652Z,70.90
2019-02-14T06:36:43.107Z,69.27
2019-02-14T06:39:11.544Z,67.00
2019-02-14T06:41:39.985Z,70.27
2019-02-14T06:44:08.408Z,67.60
2019-02-14T06:46:36.912Z,70.87
2019-02-14T06:49:05.374Z,67.27
2019-02-14T06:51:33.795Z,68.57
2019-02-14T06:54:02.248Z,65.57
2019-02-14T06:56:31.002Z,70.17
2019-02-14T06:58:59.470Z,71.43
2019-02-14T07:01:27.896Z,65.53
2019-02-14T07:03:56.581Z,78.70
2019-02-14T07:06:25.044Z,73.57
2019-02-14T07:08:53.495Z,71.53
2019-02-14T07:11:21.979Z,68.60
2019-02-14T07:13:50.404Z,76.33
2019-02-14T07:16:18.852Z,70.10
2019-02-14T07:18:47.276Z,69.67
2019-02-14T07:21:15.766Z,72.13
2019-02-14T07:23:44.269Z,70.03
2019-02-14T07:26:12.722Z,65.60
2019-02-14T07:28:41.155Z,70.83
2019-02-14T07:31:09.611Z,69.37
2019-02-14T07:33:38.072Z,68.87
2019-02-14T07:36:06.575Z,67.60
2019-02-14T07:38:34.995Z,68.77
2019-02-14T07:41:03.455Z,70.50
2019-02-14T07:43:31.875Z,67.27
2019-02-14T07:46:00.398Z,70.20
2019-02-14T07:48:28.856Z,62.30
2019-02-14T07:50:57.279Z,72.83
2019-02-14T07:53:25.720Z,69.07
2019-02-14T07:55:54.149Z,68.97
2019-02-14T07:58:22.612Z,68.17
2019-02-14T08:00:51.054Z,72.00
2019-02-14T08:03:19.501Z,68.70
2019-02-14T08:05:47.936Z,72.73
2019-02-14T08:08:16.365Z,66.97
2019-02-14T08:10:44.842Z,73.60
2019-02-14T08:13:13.267Z,61.63
2019-02-14T08:15:41.724Z,66.13
2019-02-14T08:18:10.182Z,64.73
2019-02-14T08:20:38.681Z,69.23
2019-02-14T08:23:07.140Z,67.93
2019-02-14T08:25:35.563Z,64.70
2019-02-14T08:28:04.043Z,65.40
2019-02-14T08:30:32.586Z,67.37
2019-02-14T08:33:01.061Z,65.90
2019-02-14T08:35:29.540Z,64.37
2019-02-14T08:37:58.032Z,64.07
2019-02-14T08:40:33.549Z,68.30
2019-02-14T08:43:01.961Z,71.30
2019-02-14T08:45:30.420Z,63.93
2019-02-14T08:47:58.886Z,65.73
2019-02-14T08:50:27.418Z,62.27
2019-02-14T08:52:55.934Z,61.60
2019-02-14T08:55:24.360Z,62.23
2019-02-14T08:57:52.853Z,62.60
2019-02-14T09:00:21.348Z,68.63
2019-02-14T09:02:49.775Z,60.67
2019-02-14T09:05:18.268Z,65.23
2019-02-14T09:07:54.116Z,58.40
2019-02-14T09:10:17.995Z,64.87
2019-02-14T09:12:46.526Z,57.60
2019-02-14T09:15:15.479Z,58.40
2019-02-14T09:17:43.911Z,62.47
2019-02-14T09:20:15.267Z,59.93
2019-02-14T09:22:43.758Z,61.30
2019-02-14T09:25:12.411Z,59.43
2019-02-14T09:27:40.834Z,57.67
2019-02-14T09:30:11.627Z,57.73
2019-02-14T09:32:40.257Z,54.77
2019-02-14T09:35:09.969Z,54.00
2019-02-14T09:37:38.476Z,60.53
2019-02-14T09:40:12.269Z,58.60
2019-02-14T09:42:40.949Z,58.83
2019-02-14T09:45:13.828Z,57.33
2019-02-14T09:47:42.293Z,55.67
2019-02-14T09:50:15.317Z,53.27
2019-02-14T09:52:43.877Z,54.53
2019-02-14T09:55:14.143Z,55.97
2019-02-14T09:57:42.641Z,55.70
2019-02-14T10:00:13.829Z,51.90
2019-02-14T10:02:42.355Z,54.07
2019-02-14T10:05:11.129Z,50.37
2019-02-14T10:07:39.578Z,58.20
2019-02-14T10:10:11.431Z,53.03
2019-02-14T10:12:39.888Z,54.77
2019-02-14T10:15:09.920Z,55.43
2019-02-14T10:17:38.436Z,53.93
2019-02-14T10:20:12.468Z,53.00
2019-02-14T10:22:40.919Z,52.30
2019-02-14T10:25:09.876Z,52.33
2019-02-14T10:27:38.327Z,54.43
2019-02-14T10:30:14.873Z,53.70
2019-02-14T10:32:43.320Z,53.77
2019-02-14T10:35:11.752Z,50.77
2019-02-14T10:37:40.203Z,54.87
2019-02-14T10:40:11.368Z,55.60
2019-02-14T10:42:39.859Z,51.37
2019-02-14T10:45:11.333Z,48.23
2019-02-14T10:47:39.868Z,52.63
2019-02-14T10:50:10.045Z,49.47
2019-02-14T10:52:38.502Z,54.50
2019-02-14T10:55:12.309Z,44.30
2019-02-14T10:57:40.792Z,49.10
2019-02-14T11:00:17.619Z,45.43
2019-02-14T11:02:46.526Z,48.07
2019-02-14T11:05:15.692Z,49.00
2019-02-14T11:07:44.165Z,47.00
2019-02-14T11:10:14.178Z,41.97
2019-02-14T11:12:42.745Z,40.87
2019-02-14T11:15:13.986Z,47.77
2019-02-14T11:17:42.450Z,46.67
2019-02-14T11:20:12.954Z,50.43
2019-02-14T11:22:41.416Z,48.67
2019-02-14T11:25:12.616Z,41.87
2019-02-14T11:27:41.050Z,42.07
2019-02-14T11:30:14.324Z,44.83
2019-02-14T11:32:42.824Z,37.50
2019-02-14T11:35:11.582Z,43.50
2019-02-14T11:37:40.141Z,39.37
2019-02-14T11:40:11.108Z,37.57
2019-02-14T11:42:39.545Z,46.07
2019-02-14T11:45:13.600Z,36.40
2019-02-14T11:47:42.048Z,37.93
2019-02-14T11:50:11.647Z,36.30
2019-02-14T11:52:40.252Z,35.80
2019-02-14T11:55:10.250Z,33.80
2019-02-14T11:57:38.781Z,31.87
2019-02-14T12:00:10.351Z,34.60
2019-02-14T12:02:38.903Z,34.53
2019-02-14T12:05:07.615Z,32.50
2019-02-14T12:07:36.083Z,31.90
2019-02-14T12:10:13.223Z,36.23
2019-02-14T12:12:37.163Z,32.60
2019-02-14T12:15:08.454Z,34.63
2019-02-14T12:17:36.902Z,32.97
2019-02-14T12:20:12.472Z,30.47
2019-02-14T12:22:46.314Z,37.30
2019-02-14T12:25:11.140Z,29.87
2019-02-14T12:27:39.608Z,34.93
2019-02-14T12:30:11.018Z,30.50
2019-02-14T12:32:39.437Z,28.27
2019-02-14T12:35:07.909Z,30.00
2019-02-14T12:37:36.369Z,23.73
2019-02-14T12:40:07.356Z,27.53
2019-02-14T12:42:35.804Z,25.87
2019-02-14T12:45:06.492Z,25.47
2019-02-14T12:47:34.949Z,26.57
2019-02-14T12:50:03.589Z,26.10
2019-02-14T12:52:32.015Z,40.70
2019-02-14T12:55:00.444Z,24.30
2019-02-14T12:57:28.905Z,22.97
2019-02-14T12:59:57.369Z,24.77
2019-02-14T13:02:25.820Z,26.97
2019-02-14T13:04:54.264Z,28.17
2019-02-14T13:07:22.993Z,28.80
2019-02-14T13:09:51.466Z,29.83
2019-02-14T13:12:19.912Z,22.00
2019-02-14T13:14:48.385Z,18.90
2019-02-14T13:17:16.855Z,18.87
2019-02-14T13:19:45.279Z,21.40
2019-02-14T13:22:13.737Z,22.97
2019-02-14T13:24:46.086Z,24.17
2019-02-14T13:27:14.731Z,20.70
2019-02-14T13:29:43.236Z,22.87
2019-02-14T13:32:13.610Z,20.62
2019-02-14T13:34:41.966Z,21.73
2019-02-14T13:37:10.408Z,17.27
2019-02-14T13:39:38.956Z,18.30
2019-02-14T13:42:07.504Z,20.70
2019-02-14T13:44:35.995Z,17.63
2019-02-14T13:47:04.525Z,20.73
2019-02-14T13:49:33.004Z,20.40
2019-02-14T13:52:01.538Z,22.27
2019-02-14T13:54:30.120Z,17.37
2019-02-14T13:56:58.688Z,22.20
2019-02-14T13:59:27.131Z,17.87
2019-02-14T14:01:55.847Z,16.60
2019-02-14T14:04:24.405Z,17.97
2019-02-14T14:06:52.863Z,18.17
2019-02-14T14:09:21.333Z,15.53
2019-02-14T14:11:49.799Z,19.67
2019-02-14T14:14:18.236Z,17.87
2019-02-14T14:16:46.681Z,16.13
2019-02-14T14:19:15.145Z,15.07
2019-02-14T14:21:43.619Z,16.87
2019-02-14T14:24:12.106Z,20.80
2019-02-14T14:26:40.662Z,23.57
2019-02-14T14:29:09.209Z,17.30
2019-02-14T14:31:37.662Z,18.10
2019-02-14T14:34:06.207Z,19.20
2019-02-14T14:36:34.680Z,17.00
2019-02-14T14:39:04.953Z,17.80
2019-02-14T14:41:33.527Z,18.20
2019-02-14T14:44:03.615Z,18.13
2019-02-14T14:46:33.083Z,16.13
2019-02-14T14:49:01.545Z,16.13
2019-02-14T14:51:30.429Z,15.70
2019-02-14T14:53:58.855Z,15.03
2019-02-14T14:56:27.373Z,17.63
2019-02-14T14:58:55.814Z,20.90
2019-02-14T15:01:24.546Z,14.00
2019-02-14T15:03:52.977Z,15.47
2019-02-14T15:06:21.443Z,17.10
2019-02-14T15:08:49.878Z,18.87
2019-02-14T15:11:18.460Z,15.20
2019-02-14T15:13:46.941Z,17.60
2019-02-14T15:16:15.377Z,16.17
2019-02-14T15:18:43.837Z,14.57
2019-02-14T15:21:12.296Z,14.35
2019-02-14T15:23:40.777Z,17.17
2019-02-14T15:26:09.244Z,13.47
2019-02-14T15:28:37.705Z,19.87
2019-02-14T15:31:06.158Z,20.77
2019-02-14T15:33:34.604Z,13.20
2019-02-14T15:36:03.104Z,15.67
2019-02-14T15:38:32.259Z,22.33
2019-02-14T15:41:01.724Z,19.60
2019-02-14T15:43:30.252Z,16.93
2019-02-14T15:45:58.691Z,18.87
2019-02-14T15:48:27.216Z,21.27
2019-02-14T15:50:56.691Z,16.97
2019-02-14T15:53:25.303Z,16.27
2019-02-14T15:55:53.725Z,15.57
2019-02-14T15:58:22.313Z,15.53
2019-02-14T16:00:51.779Z,17.20
2019-02-14T16:03:21.044Z,16.77
2019-02-14T16:05:49.493Z,19.27
2019-02-14T16:08:19.638Z,19.57
2019-02-14T16:10:49.678Z,15.00
2019-02-14T16:13:18.258Z,17.37
2019-02-14T16:15:46.684Z,16.03
2019-02-14T16:18:15.188Z,18.03
2019-02-14T16:20:44.320Z,17.47
2019-02-14T16:23:12.832Z,20.23
2019-02-14T16:25:41.311Z,17.50
2019-02-14T16:28:11.514Z,17.30
2019-02-14T16:30:39.883Z,17.73
2019-02-14T16:33:08.457Z,17.13
2019-02-14T16:35:37.167Z,18.97
2019-02-14T16:38:29.845Z,19.43
2019-02-14T16:40:58.279Z,18.73
2019-02-14T16:43:26.743Z,18.57
2019-02-14T16:45:55.159Z,17.30
2019-02-14T16:48:23.599Z,19.67
2019-02-14T16:50:52.030Z,22.77
2019-02-14T16:53:20.764Z,19.13
2019-02-14T16:55:49.223Z,21.73
2019-02-14T16:58:17.640Z,19.03
2019-02-14T17:00:46.060Z,20.50
2019-02-14T17:03:14.763Z,18.63
2019-02-14T17:05:43.218Z,19.30
2019-02-14T17:08:11.909Z,21.23
2019-02-14T17:10:40.340Z,19.83
2019-02-14T17:13:08.867Z,20.83
2019-02-14T17:15:37.280Z,19.33
2019-02-14T17:18:05.725Z,18.43
2019-02-14T17:20:34.193Z,26.90
2019-02-14T17:23:02.664Z,23.93
2019-02-14T17:25:31.153Z,22.63
2019-02-14T17:27:59.608Z,23.30
2019-02-14T17:30:28.296Z,23.93
2019-02-14T17:32:56.988Z,19.77
2019-02-14T17:35:25.460Z,23.77
2019-02-14T17:37:53.946Z,25.70
2019-02-14T17:40:22.395Z,23.40
2019-02-14T17:42:52.546Z,25.00
2019-02-14T17:45:21.105Z,19.20
2019-02-14T17:47:49.588Z,21.37
2019-02-14T17:50:18.004Z,23.30
2019-02-14T17:52:46.454Z,23.33
2019-02-14T17:55:14.919Z,22.57
2019-02-14T17:57:43.460Z,29.43
2019-02-14T18:00:13.023Z,22.00
2019-02-14T18:02:41.496Z,24.63
2019-02-14T18:05:10.111Z,21.40
2019-02-14T18:07:38.529Z,24.07
2019-02-14T18:10:10.125Z,23.63
2019-02-14T18:12:38.638Z,28.73
2019-02-14T18:44:17.301Z,23.77
2019-02-14T18:46:45.779Z,23.63
2019-02-14T18:49:14.220Z,29.20
2019-02-14T18:51:42.671Z,23.43
2019-02-14T18:54:11.197Z,24.33
2019-02-14T18:56:39.628Z,24.00
2019-02-14T18:59:08.086Z,27.80
2019-02-14T19:01:36.781Z,26.33
2019-02-14T19:04:05.280Z,29.90
2019-02-14T19:06:33.744Z,29.60
2019-02-14T19:09:02.209Z,26.90
2019-02-14T19:11:30.680Z,34.97
2019-02-14T19:13:59.208Z,30.57
2019-02-14T19:16:27.736Z,26.70
2019-02-14T19:18:56.210Z,28.73
2019-02-14T19:21:24.669Z,26.80
2019-02-14T19:23:53.109Z,25.17
2019-02-14T19:26:21.532Z,27.10
2019-02-14T19:28:49.987Z,27.37
2019-02-14T19:31:24.317Z,28.93
2019-02-14T19:33:52.749Z,32.47
2019-02-14T19:36:21.176Z,32.27
2019-02-14T19:38:49.636Z,29.23
2019-02-14T19:41:25.075Z,29.80
2019-02-14T19:43:48.246Z,31.43
2019-02-14T19:46:16.697Z,29.30
2019-02-14T19:48:45.254Z,30.47
2019-02-14T19:51:13.717Z,28.73
2019-02-14T19:53:42.139Z,25.93
2019-02-14T19:56:10.555Z,29.00
2019-02-14T19:58:39.069Z,30.30
2019-02-14T20:01:07.580Z,27.53
2019-02-14T20:03:36.053Z,29.80
2019-02-14T20:06:04.593Z,30.80
2019-02-14T20:08:33.065Z,30.47
2019-02-14T20:11:02.238Z,28.33
2019-02-14T20:13:30.737Z,33.13
2019-02-14T20:15:59.208Z,33.00
2019-02-14T20:18:27.655Z,29.67
2019-02-14T20:20:56.115Z,28.30
2019-02-14T20:23:24.649Z,30.97
2019-02-14T20:25:53.159Z,31.43
2019-02-14T20:28:21.640Z,30.07
2019-02-14T20:30:50.078Z,35.07
2019-02-14T20:33:18.527Z,30.03
2019-02-14T20:35:46.968Z,32.83
2019-02-14T20:38:15.483Z,30.70
2019-02-14T20:40:43.954Z,29.20
2019-02-14T20:43:12.469Z,28.37
2019-02-14T20:45:40.919Z,32.90
2019-02-14T20:48:09.415Z,37.50
2019-02-14T20:50:37.996Z,35.57
2019-02-14T20:53:06.492Z,36.27
2019-02-14T20:55:34.944Z,32.40
2019-02-14T20:58:03.644Z,33.60
2019-02-14T21:00:33.799Z,33.13
2019-02-14T21:03:02.383Z,34.33
2019-02-14T21:05:31.024Z,34.33
2019-02-14T21:07:59.482Z,37.03
2019-02-14T21:10:27.908Z,34.10
2019-02-14T21:12:56.352Z,31.53
2019-02-14T21:15:24.778Z,35.73
2019-02-14T21:17:53.312Z,30.47
2019-02-14T21:20:21.864Z,35.60
2019-02-14T21:22:50.337Z,30.20
2019-02-14T21:25:22.501Z,30.23
2019-02-14T21:27:49.078Z,36.23
2019-02-14T21:30:18.981Z,33.40
2019-02-14T21:32:47.659Z,32.20
2019-02-14T21:35:16.174Z,35.57
2019-02-14T21:37:44.696Z,31.00
2019-02-14T21:40:15.180Z,33.23
2019-02-14T21:42:43.636Z,33.73
2019-02-14T21:45:14.590Z,35.00
2019-02-14T21:47:43.056Z,34.13
2019-02-14T21:50:12.302Z,31.20
2019-02-14T21:52:40.838Z,32.77
2019-02-14T21:55:13.145Z,31.77
2019-02-14T21:57:41.679Z,33.07
2019-02-14T22:00:24.757Z,29.90
2019-02-14T22:02:53.221Z,32.97
2019-02-14T22:05:25.146Z,30.23
2019-02-14T22:07:51.970Z,30.90
2019-02-14T22:10:20.403Z,30.27
2019-02-14T22:12:48.945Z,30.20
2019-02-14T22:15:28.629Z,32.83
2019-02-14T22:17:57.142Z,33.50
2019-02-14T22:20:25.599Z,32.50
2019-02-14T22:22:54.032Z,33.10
2019-02-14T22:25:22.480Z,31.80
2019-02-14T22:27:51.013Z,39.23
2019-02-14T22:30:19.436Z,31.60
2019-02-14T22:32:48.153Z,31.67
2019-02-14T22:35:16.585Z,33.53
2019-02-14T22:37:45.014Z,32.73
2019-02-14T22:40:14.320Z,33.03
2019-02-14T22:42:47.199Z,32.53
2019-02-14T22:45:14.128Z,33.77
2019-02-14T22:47:43.620Z,32.97
2019-02-14T22:50:12.995Z,35.30
2019-02-14T22:52:41.442Z,33.03
2019-02-14T22:55:11.108Z,30.40
2019-02-14T22:57:39.553Z,32.93
2019-02-14T23:00:27.424Z,29.73
2019-02-14T23:02:55.917Z,32.30
2019-02-14T23:05:24.388Z,34.50
2019-02-14T23:07:52.810Z,37.57
2019-02-14T23:10:21.248Z,34.17
2019-02-14T23:12:55.464Z,39.43
2019-02-14T23:15:19.973Z,31.67
2019-02-14T23:17:48.601Z,34.07
2019-02-14T23:20:17.075Z,31.67
2019-02-14T23:22:45.504Z,31.60
2019-02-14T23:25:13.959Z,30.73
2019-02-14T23:27:42.489Z,32.53
2019-02-14T23:30:12.149Z,31.23
2019-02-14T23:32:40.564Z,30.90
2019-02-14T23:35:09.091Z,28.07
2019-02-14T23:37:37.544Z,33.50
2019-02-14T23:40:07.024Z,35.53
2019-02-14T23:42:35.474Z,34.23
2019-02-14T23:45:05.009Z,31.93
2019-02-14T23:47:33.455Z,32.47
2019-02-14T23:50:01.901Z,33.97
2019-02-14T23:52:30.360Z,35.37
2019-02-14T23:54:58.788Z,33.70
2019-02-14T23:57:27.268Z,32.83
2019-02-14T23:59:55.782Z,32.90
